Time;durP1;ratioP1;P1;durP2;ratioP2;P2;SDS_P1;SDS_P2;PMS_P1;PMS_P2;Temp;Humidity;BMP_temperature;BMP_pressure;BME280_temperature;BME280_humidity;BME280_pressure;Samples;Min_cycle;Max_cycle;Signal;HPM_P1;HPM_P2
2023/07/23 00:01:05;;;;;;;13.20;8.05;;;14.80;99.90;;;;;;4968784;28;20054;-67
2023/07/23 00:03:31;;;;;;;15.13;7.78;;;14.90;99.90;;;;;;4973138;28;20039;-66
2023/07/23 00:05:57;;;;;;;12.23;8.07;;;14.80;99.90;;;;;;4961740;28;20042;-66
2023/07/23 00:08:22;;;;;;;14.82;8.25;;;14.80;99.90;;;;;;4965178;28;20050;-66
2023/07/23 00:10:48;;;;;;;15.50;8.55;;;14.90;99.90;;;;;;4968212;28;20039;-69
2023/07/23 00:13:13;;;;;;;11.98;7.93;;;14.80;99.90;;;;;;4970771;28;20118;-67
2023/07/23 00:15:39;;;;;;;13.48;8.13;;;14.80;99.90;;;;;;4954138;28;20411;-69
2023/07/23 00:18:05;;;;;;;12.60;7.82;;;14.90;99.90;;;;;;4956171;28;20043;-66
2023/07/23 00:20:30;;;;;;;15.10;8.25;;;14.90;99.90;;;;;;4960689;28;20047;-67
2023/07/23 00:22:56;;;;;;;14.75;8.15;;;14.90;99.90;;;;;;4962597;28;20043;-66
2023/07/23 00:25:22;;;;;;;13.25;8.50;;;14.90;99.90;;;;;;4974360;28;20043;-67
2023/07/23 00:27:47;;;;;;;14.13;7.32;;;14.90;99.90;;;;;;4969968;28;20133;-68
2023/07/23 00:30:13;;;;;;;12.02;7.53;;;15.00;99.90;;;;;;4945474;28;20043;-69
2023/07/23 00:32:38;;;;;;;15.32;7.40;;;15.00;99.90;;;;;;4953845;28;20035;-68
2023/07/23 00:35:04;;;;;;;12.73;7.55;;;15.00;99.90;;;;;;4955028;28;20034;-68
2023/07/23 00:37:31;;;;;;;16.63;7.38;;;15.00;99.90;;;;;;4965059;28;20042;-67
2023/07/23 00:39:57;;;;;;;13.98;7.57;;;15.00;99.90;;;;;;4956387;28;20046;-69
2023/07/23 00:42:23;;;;;;;12.15;7.10;;;15.00;99.90;;;;;;4954714;29;20039;-69
2023/07/23 00:44:48;;;;;;;12.15;7.20;;;14.90;99.90;;;;;;4945205;28;20073;-69
2023/07/23 00:47:16;;;;;;;12.50;7.65;;;14.90;99.90;;;;;;4941543;29;20133;-65
2023/07/23 00:49:42;;;;;;;12.68;7.38;;;15.00;99.90;;;;;;4954235;28;20094;-69
2023/07/23 00:52:08;;;;;;;14.98;7.53;;;15.00;99.90;;;;;;4962509;28;20048;-69
2023/07/23 00:54:34;;;;;;;13.13;7.30;;;15.00;99.90;;;;;;4973238;28;20070;-68
2023/07/23 00:57:02;;;;;;;13.85;7.60;;;14.90;99.90;;;;;;4956077;28;20071;-69
2023/07/23 00:59:30;;;;;;;15.07;7.70;;;14.90;99.90;;;;;;4956382;28;20054;-68
2023/07/23 01:01:56;;;;;;;14.85;8.18;;;14.90;99.90;;;;;;4968357;28;20047;-68
2023/07/23 01:04:22;;;;;;;13.23;8.23;;;14.90;99.90;;;;;;4960902;28;20102;-69
2023/07/23 01:06:49;;;;;;;14.13;8.43;;;14.90;99.90;;;;;;4936650;29;20454;-69
2023/07/23 01:09:16;;;;;;;16.55;8.30;;;14.90;99.90;;;;;;4953150;28;20039;-69
2023/07/23 01:11:42;;;;;;;13.85;7.57;;;14.80;99.90;;;;;;4966205;28;20039;-69
2023/07/23 01:14:08;;;;;;;15.05;8.30;;;14.80;99.90;;;;;;4954130;28;20054;-69
2023/07/23 01:16:34;;;;;;;15.48;8.10;;;14.80;99.90;;;;;;4952342;28;20043;-67
2023/07/23 01:19:02;;;;;;;18.23;8.60;;;14.70;99.90;;;;;;4962000;28;20043;-67
2023/07/23 01:21:27;;;;;;;14.80;7.72;;;14.70;99.90;;;;;;4953917;28;20039;-68
2023/07/23 01:23:53;;;;;;;16.08;8.85;;;14.70;99.90;;;;;;4954052;29;20478;-66
2023/07/23 01:26:19;;;;;;;14.50;8.35;;;14.70;99.90;;;;;;4954087;28;20047;-67
2023/07/23 01:28:45;;;;;;;16.95;8.05;;;14.70;99.90;;;;;;4967652;28;20488;-66
2023/07/23 01:31:12;;;;;;;17.33;8.63;;;14.70;99.90;;;;;;4953905;28;20038;-67
2023/07/23 01:33:39;;;;;;;14.98;8.18;;;14.70;99.90;;;;;;4954965;28;20570;-67
2023/07/23 01:36:06;;;;;;;17.42;8.75;;;14.60;99.90;;;;;;4950693;28;20046;-67
2023/07/23 01:38:31;;;;;;;15.60;8.68;;;14.60;99.90;;;;;;4953064;28;20046;-66
2023/07/23 01:40:58;;;;;;;16.48;9.07;;;14.60;99.90;;;;;;4936799;29;20051;-67
2023/07/23 01:43:24;;;;;;;17.92;8.38;;;14.60;99.90;;;;;;4953098;28;20107;-68
2023/07/23 01:45:50;;;;;;;14.30;8.27;;;14.60;99.90;;;;;;4964606;28;20113;-67
2023/07/23 01:48:17;;;;;;;15.38;8.32;;;14.60;99.90;;;;;;4936032;29;20114;-67
2023/07/23 01:50:42;;;;;;;14.90;8.43;;;14.60;99.90;;;;;;4943737;28;20393;-68
2023/07/23 01:53:08;;;;;;;15.13;8.68;;;14.60;99.90;;;;;;4967596;28;20122;-68
2023/07/23 01:55:34;;;;;;;17.67;8.98;;;14.60;99.90;;;;;;4953063;28;20074;-66
2023/07/23 01:58:00;;;;;;;14.73;8.07;;;14.60;99.90;;;;;;4953241;29;20043;-66
2023/07/23 02:00:26;;;;;;;16.67;8.38;;;14.60;99.90;;;;;;4956049;28;20126;-67
2023/07/23 02:02:53;;;;;;;18.25;9.15;;;14.60;99.90;;;;;;4970752;28;20093;-67
2023/07/23 02:05:19;;;;;;;16.58;8.98;;;14.70;99.90;;;;;;4953277;28;20045;-67
2023/07/23 02:07:45;;;;;;;18.92;9.18;;;14.70;99.90;;;;;;4958087;28;20049;-67
2023/07/23 02:10:11;;;;;;;17.40;9.73;;;14.60;99.90;;;;;;4937266;28;20081;-67
2023/07/23 02:12:37;;;;;;;15.23;9.05;;;14.70;99.90;;;;;;4952941;28;20053;-67
2023/07/23 02:15:03;;;;;;;19.98;10.05;;;14.70;99.90;;;;;;4956344;28;20654;-67
2023/07/23 02:17:29;;;;;;;17.35;9.18;;;14.70;99.90;;;;;;4961236;28;20047;-68
2023/07/23 02:19:55;;;;;;;18.67;9.38;;;14.70;99.90;;;;;;4953273;28;20115;-67
2023/07/23 02:22:20;;;;;;;18.42;9.38;;;14.70;99.90;;;;;;4953294;29;20047;-67
2023/07/23 02:24:46;;;;;;;18.63;10.25;;;14.70;99.90;;;;;;4963664;28;20061;-67
2023/07/23 02:27:12;;;;;;;18.65;10.38;;;14.70;99.90;;;;;;4956409;28;20043;-67
2023/07/23 02:29:38;;;;;;;17.52;9.90;;;14.70;99.90;;;;;;4952451;28;20039;-69
2023/07/23 02:32:05;;;;;;;17.40;9.57;;;14.70;99.90;;;;;;4959594;28;20043;-69
2023/07/23 02:34:31;;;;;;;20.25;8.95;;;14.70;99.90;;;;;;4960139;28;20047;-67
2023/07/23 02:36:56;;;;;;;15.68;9.48;;;14.70;99.90;;;;;;4926592;29;20157;-66
2023/07/23 02:39:22;;;;;;;18.55;9.35;;;14.70;99.90;;;;;;4950172;29;20114;-66
2023/07/23 02:41:48;;;;;;;15.38;9.13;;;14.70;99.90;;;;;;4948039;28;20035;-70
2023/07/23 02:44:13;;;;;;;17.70;9.45;;;14.70;99.90;;;;;;4942085;29;20658;-67
2023/07/23 02:46:39;;;;;;;15.43;8.70;;;14.70;99.90;;;;;;4932623;29;20051;-66
2023/07/23 02:49:05;;;;;;;16.77;9.40;;;14.70;99.90;;;;;;4945798;28;20039;-66
2023/07/23 02:51:31;;;;;;;16.15;9.32;;;14.70;99.90;;;;;;4956665;28;20557;-67
2023/07/23 02:53:57;;;;;;;13.55;9.00;;;14.70;99.90;;;;;;4952813;28;20123;-69
2023/07/23 02:56:22;;;;;;;18.05;9.82;;;14.80;99.90;;;;;;4953186;28;20039;-69
2023/07/23 02:58:48;;;;;;;13.32;8.82;;;14.70;99.90;;;;;;4965656;28;20058;-66
2023/07/23 03:01:14;;;;;;;16.15;9.23;;;14.70;99.90;;;;;;4938846;29;20050;-67
2023/07/23 03:03:39;;;;;;;18.83;9.82;;;14.70;99.90;;;;;;4956671;29;20039;-67
2023/07/23 03:06:08;;;;;;;16.77;9.95;;;14.70;99.90;;;;;;4938686;29;20094;-67
2023/07/23 03:08:35;;;;;;;22.88;10.10;;;14.80;99.90;;;;;;4961064;28;20405;-67
2023/07/23 03:11:00;;;;;;;17.83;10.45;;;14.70;99.90;;;;;;4956727;28;20054;-67
2023/07/23 03:13:26;;;;;;;19.10;10.48;;;14.70;99.90;;;;;;4955424;28;20047;-66
2023/07/23 03:15:52;;;;;;;19.40;11.50;;;14.80;99.90;;;;;;4947922;28;20493;-66
2023/07/23 03:18:17;;;;;;;15.52;9.85;;;14.80;99.90;;;;;;4969165;28;20468;-67
2023/07/23 03:20:43;;;;;;;17.95;9.93;;;14.80;99.90;;;;;;4974747;28;20057;-69
2023/07/23 03:23:09;;;;;;;16.30;10.05;;;14.80;99.90;;;;;;4962992;28;20045;-69
2023/07/23 03:25:35;;;;;;;18.08;10.73;;;14.80;99.90;;;;;;4965322;28;20039;-66
2023/07/23 03:28:00;;;;;;;17.02;10.68;;;14.80;99.90;;;;;;4954009;28;20517;-66
2023/07/23 03:30:27;;;;;;;16.27;10.05;;;14.80;99.90;;;;;;4958522;28;20046;-66
2023/07/23 03:32:53;;;;;;;17.65;10.32;;;14.80;99.90;;;;;;4968088;28;20097;-67
2023/07/23 03:35:20;;;;;;;17.67;11.20;;;14.80;99.90;;;;;;4962527;28;20059;-67
2023/07/23 03:37:46;;;;;;;18.95;10.80;;;14.80;99.90;;;;;;4955626;29;20122;-67
2023/07/23 03:40:11;;;;;;;18.25;10.88;;;14.80;99.90;;;;;;4958625;28;20179;-66
2023/07/23 03:42:37;;;;;;;18.77;11.05;;;14.80;99.90;;;;;;4965221;28;20043;-67
2023/07/23 03:45:03;;;;;;;17.75;10.50;;;14.80;99.90;;;;;;4955188;28;20039;-67
2023/07/23 03:47:29;;;;;;;17.50;11.77;;;14.80;99.90;;;;;;4941542;28;20052;-67
2023/07/23 03:49:54;;;;;;;22.17;11.98;;;14.80;99.90;;;;;;4958060;28;20062;-67
2023/07/23 03:52:21;;;;;;;19.60;11.45;;;14.80;99.90;;;;;;4955058;28;20035;-68
2023/07/23 03:54:47;;;;;;;17.45;11.18;;;14.90;99.90;;;;;;4955294;29;20106;-67
2023/07/23 03:57:12;;;;;;;18.58;11.27;;;14.90;99.90;;;;;;4962694;28;20035;-68
2023/07/23 03:59:40;;;;;;;19.42;10.93;;;14.90;99.90;;;;;;4957293;28;20074;-67
2023/07/23 04:02:06;;;;;;;18.33;10.82;;;14.90;99.90;;;;;;4953935;28;20043;-68
2023/07/23 04:04:33;;;;;;;21.55;10.38;;;14.90;99.90;;;;;;4958042;28;20061;-66
2023/07/23 04:06:59;;;;;;;19.92;10.30;;;14.90;99.90;;;;;;4942383;28;20047;-67
2023/07/23 04:09:24;;;;;;;17.63;11.45;;;14.90;99.90;;;;;;4966829;28;20317;-67
2023/07/23 04:11:50;;;;;;;16.50;10.20;;;14.90;99.90;;;;;;4954653;28;20405;-67
2023/07/23 04:14:15;;;;;;;16.15;10.65;;;14.90;99.90;;;;;;4946669;28;20527;-68
2023/07/23 04:16:41;;;;;;;17.63;10.45;;;14.90;99.90;;;;;;4937841;29;20046;-68
2023/07/23 04:19:07;;;;;;;22.42;10.45;;;14.90;99.90;;;;;;4937991;29;20043;-68
2023/07/23 04:21:32;;;;;;;19.95;10.45;;;14.90;99.90;;;;;;4963110;28;20049;-68
2023/07/23 04:24:00;;;;;;;18.88;10.95;;;15.00;99.90;;;;;;4962425;28;20355;-68
2023/07/23 04:26:28;;;;;;;17.33;10.90;;;15.00;99.90;;;;;;4954819;28;20043;-68
2023/07/23 04:28:54;;;;;;;18.25;10.95;;;14.90;99.90;;;;;;4954522;28;20108;-67
2023/07/23 04:31:19;;;;;;;18.52;11.60;;;14.90;99.90;;;;;;4961152;28;20032;-68
2023/07/23 04:33:45;;;;;;;20.45;11.57;;;14.90;99.90;;;;;;4954690;28;20631;-69
2023/07/23 04:36:13;;;;;;;19.33;11.52;;;14.90;99.90;;;;;;4954668;29;20043;-68
2023/07/23 04:38:39;;;;;;;20.98;11.70;;;15.00;99.90;;;;;;4960512;28;20051;-68
2023/07/23 04:41:05;;;;;;;20.15;11.82;;;15.00;99.90;;;;;;4966579;28;20081;-68
2023/07/23 04:43:32;;;;;;;22.27;12.07;;;15.00;99.90;;;;;;4962409;28;20062;-69
2023/07/23 04:45:58;;;;;;;24.00;11.85;;;15.00;99.90;;;;;;4954130;28;20039;-69
2023/07/23 04:48:24;;;;;;;17.50;11.27;;;15.00;99.90;;;;;;4954353;29;20102;-68
2023/07/23 04:50:56;;;;;;;18.38;11.82;;;15.10;99.90;;;;;;4963498;28;20049;-69
2023/07/23 04:53:23;;;;;;;19.35;11.55;;;15.10;99.90;;;;;;4957943;28;20046;-68
2023/07/23 04:55:53;;;;;;;18.52;11.07;;;15.00;99.90;;;;;;4965073;28;20106;-69
2023/07/23 04:58:19;;;;;;;21.95;11.80;;;15.10;99.90;;;;;;4953954;28;20093;-68
2023/07/23 05:00:45;;;;;;;20.58;11.50;;;15.10;99.90;;;;;;4954163;29;20118;-68
2023/07/23 05:03:11;;;;;;;20.33;11.85;;;15.10;99.90;;;;;;4956303;28;20170;-68
2023/07/23 05:05:39;;;;;;;16.52;11.05;;;15.10;99.90;;;;;;4959845;28;20043;-68
2023/07/23 05:08:04;;;;;;;16.55;10.38;;;15.20;99.90;;;;;;4936624;29;20047;-67
2023/07/23 05:10:30;;;;;;;18.67;10.70;;;15.20;99.90;;;;;;4957802;28;20125;-68
2023/07/23 05:12:55;;;;;;;22.40;11.45;;;15.20;99.90;;;;;;4970590;28;20042;-68
2023/07/23 05:15:21;;;;;;;19.33;10.90;;;15.30;99.90;;;;;;4953809;28;20045;-68
2023/07/23 05:17:47;;;;;;;18.08;11.18;;;15.30;99.90;;;;;;4953824;28;20039;-68
2023/07/23 05:20:12;;;;;;;16.55;10.98;;;15.30;99.90;;;;;;4958338;28;20047;-67
2023/07/23 05:22:39;;;;;;;19.25;11.10;;;15.40;99.90;;;;;;4947673;28;20039;-68
2023/07/23 05:25:05;;;;;;;18.67;11.13;;;15.40;99.90;;;;;;4946466;28;20118;-68
2023/07/23 05:27:31;;;;;;;19.75;11.32;;;15.40;99.90;;;;;;4958943;28;20042;-66
2023/07/23 05:29:57;;;;;;;27.88;12.07;;;15.50;99.90;;;;;;4943354;28;20079;-67
2023/07/23 05:32:24;;;;;;;19.48;11.38;;;15.50;99.90;;;;;;4941639;28;20745;-67
2023/07/23 05:34:49;;;;;;;21.00;11.25;;;15.60;99.90;;;;;;4942062;29;20110;-68
2023/07/23 05:37:15;;;;;;;16.98;10.77;;;15.60;99.90;;;;;;4945403;28;20047;-68
2023/07/23 05:39:41;;;;;;;19.58;11.60;;;15.70;99.90;;;;;;4950076;28;20047;-66
2023/07/23 05:42:06;;;;;;;16.60;11.02;;;15.70;99.90;;;;;;4941543;28;20098;-67
2023/07/23 05:44:32;;;;;;;16.02;11.07;;;15.70;99.90;;;;;;4949673;28;20051;-67
2023/07/23 05:46:58;;;;;;;18.65;10.85;;;15.80;99.90;;;;;;4954476;28;20398;-67
2023/07/23 05:49:24;;;;;;;20.70;10.70;;;15.80;99.90;;;;;;4949399;28;20090;-68
2023/07/23 05:51:50;;;;;;;18.33;10.63;;;15.90;99.90;;;;;;4960137;28;20381;-67
2023/07/23 05:54:16;;;;;;;16.92;10.75;;;16.00;99.90;;;;;;4950284;28;20077;-67
2023/07/23 05:56:42;;;;;;;18.05;10.65;;;16.10;99.90;;;;;;4969077;28;20524;-68
2023/07/23 05:59:07;;;;;;;19.73;10.68;;;16.20;99.90;;;;;;4930710;28;20064;-67
2023/07/23 06:01:33;;;;;;;14.27;9.32;;;16.20;99.90;;;;;;4945197;28;20046;-66
2023/07/23 06:03:58;;;;;;;15.68;9.98;;;16.20;99.90;;;;;;4959041;28;20047;-67
2023/07/23 06:06:24;;;;;;;13.45;9.52;;;16.20;99.90;;;;;;4949850;28;20055;-68
2023/07/23 06:08:50;;;;;;;15.82;9.65;;;16.20;99.90;;;;;;4956414;28;20512;-68
2023/07/23 06:11:16;;;;;;;17.77;9.75;;;16.30;99.90;;;;;;4954363;28;20727;-66
2023/07/23 06:13:41;;;;;;;16.35;9.48;;;16.30;99.90;;;;;;4954324;28;20038;-67
2023/07/23 06:16:07;;;;;;;18.73;9.88;;;16.40;99.90;;;;;;4948844;28;20030;-66
2023/07/23 06:18:35;;;;;;;14.45;8.95;;;16.40;99.90;;;;;;4955830;28;20498;-69
2023/07/23 06:21:04;;;;;;;15.80;9.25;;;16.50;99.90;;;;;;4954036;28;20046;-69
2023/07/23 06:23:31;;;;;;;14.95;9.55;;;16.50;99.90;;;;;;4928891;28;20071;-69
2023/07/23 06:25:57;;;;;;;12.52;8.82;;;16.60;99.90;;;;;;4948580;28;20109;-67
2023/07/23 06:28:23;;;;;;;15.05;9.40;;;16.60;99.90;;;;;;4940271;28;20514;-68
2023/07/23 06:30:53;;;;;;;13.52;9.13;;;16.70;99.90;;;;;;4942479;28;20042;-68
2023/07/23 06:33:19;;;;;;;13.52;8.50;;;16.70;99.90;;;;;;4950807;28;20118;-69
2023/07/23 06:35:46;;;;;;;15.65;9.68;;;16.70;99.90;;;;;;4936660;28;20054;-67
2023/07/23 06:38:12;;;;;;;16.55;9.85;;;16.70;99.90;;;;;;4926687;29;20062;-68
2023/07/23 06:40:45;;;;;;;14.48;8.70;;;16.70;99.90;;;;;;4944967;29;20070;-67
2023/07/23 06:43:11;;;;;;;14.75;9.93;;;16.80;99.90;;;;;;4946583;28;20049;-66
2023/07/23 06:45:36;;;;;;;16.15;8.55;;;16.80;99.90;;;;;;4969491;28;20468;-66
2023/07/23 06:48:02;;;;;;;12.27;8.75;;;16.80;99.90;;;;;;4954107;28;20075;-66
2023/07/23 06:50:30;;;;;;;13.57;9.13;;;16.90;99.90;;;;;;4954727;28;20035;-67
2023/07/23 06:52:55;;;;;;;13.45;8.93;;;16.90;99.90;;;;;;4959717;28;20170;-69
2023/07/23 06:55:21;;;;;;;14.63;9.27;;;16.90;99.90;;;;;;4962705;28;20034;-67
2023/07/23 06:57:46;;;;;;;14.70;9.65;;;16.90;99.90;;;;;;4964435;28;20045;-68
2023/07/23 07:00:12;;;;;;;15.07;9.98;;;16.80;99.90;;;;;;4969243;28;20440;-69
2023/07/23 07:02:38;;;;;;;14.63;9.40;;;16.90;99.90;;;;;;4956110;28;20034;-68
2023/07/23 07:05:04;;;;;;;15.50;9.88;;;16.90;99.90;;;;;;4972227;28;20047;-69
2023/07/23 07:07:29;;;;;;;14.88;9.13;;;16.90;99.90;;;;;;4962719;28;20038;-68
2023/07/23 07:09:55;;;;;;;16.23;9.85;;;16.90;99.90;;;;;;4957263;28;20062;-68
2023/07/23 07:12:21;;;;;;;13.95;8.98;;;16.90;99.90;;;;;;4966133;28;20070;-69
2023/07/23 07:14:46;;;;;;;12.45;8.43;;;16.90;99.90;;;;;;4958930;28;20039;-69
2023/07/23 07:17:12;;;;;;;13.70;9.02;;;16.90;99.90;;;;;;4962379;28;20489;-69
2023/07/23 07:19:37;;;;;;;13.55;9.27;;;16.90;99.90;;;;;;4963725;28;20128;-69
2023/07/23 07:22:03;;;;;;;17.00;9.20;;;16.90;99.90;;;;;;4956212;29;20039;-67
2023/07/23 07:24:29;;;;;;;15.93;9.00;;;16.80;99.90;;;;;;4943984;28;20042;-65
2023/07/23 07:26:54;;;;;;;15.82;8.75;;;16.80;99.90;;;;;;4959627;28;20036;-69
2023/07/23 07:29:20;;;;;;;12.90;8.85;;;16.80;99.90;;;;;;4938527;29;20051;-69
2023/07/23 07:31:48;;;;;;;12.32;8.27;;;16.80;99.90;;;;;;4968882;28;20125;-69
2023/07/23 07:34:13;;;;;;;13.25;8.77;;;16.80;99.90;;;;;;4964220;28;20031;-68
2023/07/23 07:36:39;;;;;;;14.55;9.23;;;16.80;99.90;;;;;;4957425;28;20106;-69
2023/07/23 07:39:05;;;;;;;19.63;8.85;;;16.60;99.90;;;;;;4955518;28;20075;-70
2023/07/23 07:41:31;;;;;;;16.48;9.10;;;16.60;99.90;;;;;;4960980;28;20126;-69
2023/07/23 07:43:56;;;;;;;16.88;9.00;;;16.50;99.90;;;;;;4944119;28;20137;-69
2023/07/23 07:46:23;;;;;;;13.95;8.65;;;16.50;99.90;;;;;;4938388;29;20457;-69
2023/07/23 07:48:49;;;;;;;14.27;8.90;;;16.50;99.90;;;;;;4937150;28;20528;-65
2023/07/23 07:51:15;;;;;;;14.77;9.45;;;16.40;99.90;;;;;;4976217;28;20514;-69
2023/07/23 07:53:40;;;;;;;15.35;9.23;;;16.40;99.90;;;;;;4959652;28;20046;-69
2023/07/23 07:56:13;;;;;;;14.18;8.68;;;16.30;99.90;;;;;;4938391;29;20046;-70
2023/07/23 07:58:39;;;;;;;17.38;8.63;;;16.30;99.90;;;;;;4947728;28;20066;-69
2023/07/23 08:01:05;;;;;;;15.43;8.50;;;16.30;99.90;;;;;;4966354;28;20046;-70
2023/07/23 08:03:32;;;;;;;14.10;7.70;;;16.20;99.90;;;;;;4961296;28;20093;-68
2023/07/23 08:05:59;;;;;;;13.35;7.32;;;16.20;99.90;;;;;;4938198;29;20043;-69
2023/07/23 08:08:27;;;;;;;12.73;7.47;;;16.10;99.90;;;;;;4962963;28;20127;-69
2023/07/23 08:10:59;;;;;;;11.15;7.53;;;16.10;99.90;;;;;;4945010;28;20074;-68
2023/07/23 08:13:25;;;;;;;13.98;8.07;;;16.00;99.90;;;;;;4962490;28;20078;-69
2023/07/23 08:15:52;;;;;;;18.52;8.00;;;16.00;99.90;;;;;;4964736;28;20118;-68
2023/07/23 08:18:18;;;;;;;16.40;8.55;;;16.10;99.90;;;;;;4969907;28;20039;-68
2023/07/23 08:20:43;;;;;;;15.45;7.35;;;16.10;99.90;;;;;;4955326;29;20040;-68
2023/07/23 08:23:09;;;;;;;18.25;8.10;;;16.10;99.90;;;;;;4955049;29;20083;-68
2023/07/23 08:25:37;;;;;;;13.43;7.50;;;16.10;99.90;;;;;;4961067;28;20035;-68
2023/07/23 08:28:03;;;;;;;14.55;8.23;;;16.20;99.90;;;;;;4955594;28;20039;-67
2023/07/23 08:30:30;;;;;;;13.32;8.43;;;16.10;99.90;;;;;;4954488;28;20039;-67
2023/07/23 08:32:58;;;;;;;11.13;6.88;;;16.20;99.90;;;;;;4963446;28;20077;-67
2023/07/23 08:35:26;;;;;;;12.63;8.07;;;16.30;99.90;;;;;;4954482;28;20031;-68
2023/07/23 08:37:52;;;;;;;13.95;6.75;;;16.40;99.90;;;;;;4954627;29;20035;-68
2023/07/23 08:40:19;;;;;;;12.77;7.13;;;16.40;99.90;;;;;;4963780;28;20039;-67
2023/07/23 08:42:54;;;;;;;12.05;7.57;;;16.40;99.90;;;;;;4957908;28;20047;-67
2023/07/23 08:45:57;;;;;;;9.10;5.50;;;16.30;99.90;;;;;;4954729;29;20043;-67
2023/07/23 08:48:35;;;;;;;12.10;7.32;;;16.30;99.90;;;;;;4961783;28;20042;-67
2023/07/23 08:51:01;;;;;;;12.73;7.68;;;16.30;99.90;;;;;;4961427;28;20049;-67
2023/07/23 08:53:33;;;;;;;11.73;7.60;;;16.30;99.90;;;;;;4954262;28;20114;-67
2023/07/23 08:55:58;;;;;;;12.40;7.10;;;16.30;99.90;;;;;;4959255;28;20042;-67
2023/07/23 08:58:24;;;;;;;11.90;8.00;;;16.30;99.90;;;;;;4966871;28;20043;-67
2023/07/23 09:00:50;;;;;;;12.63;7.80;;;16.30;99.90;;;;;;4953804;28;20065;-67
2023/07/23 09:03:21;;;;;;;12.80;8.05;;;16.20;99.90;;;;;;4953945;28;20122;-68
2023/07/23 09:05:46;;;;;;;;;;;16.10;99.90;;;;;;4944433;28;20043;-68
2023/07/23 09:08:12;;;;;;;12.48;7.75;;;16.10;99.90;;;;;;4953623;28;19922;-68
2023/07/23 09:10:38;;;;;;;14.43;7.55;;;16.10;99.90;;;;;;4954397;29;20386;-68
2023/07/23 09:13:14;;;;;;;12.27;7.63;;;16.10;99.90;;;;;;4941173;28;20053;-68
2023/07/23 09:15:57;;;;;;;12.57;7.78;;;16.20;99.90;;;;;;4958646;28;20053;-69
2023/07/23 09:18:23;;;;;;;12.35;8.05;;;16.30;99.90;;;;;;4954010;28;20071;-67
2023/07/23 09:20:49;;;;;;;11.75;7.57;;;16.40;99.90;;;;;;4955904;28;20125;-68
2023/07/23 09:23:15;;;;;;;13.23;7.72;;;16.50;99.90;;;;;;4980129;28;20038;-69
2023/07/23 09:25:43;;;;;;;10.98;7.40;;;16.50;99.90;;;;;;4972673;28;20046;-69
2023/07/23 09:28:20;;;;;;;8.55;6.65;;;16.40;99.90;;;;;;4973008;28;20046;-69
2023/07/23 09:30:45;;;;;;;10.02;6.32;;;16.40;99.90;;;;;;4960103;28;20083;-68
2023/07/23 09:33:12;;;;;;;12.05;7.05;;;16.50;99.90;;;;;;4963561;28;20118;-68
2023/07/23 09:35:38;;;;;;;11.60;7.35;;;16.50;99.90;;;;;;4954439;28;20494;-68
2023/07/23 09:38:05;;;;;;;11.15;7.25;;;16.50;99.90;;;;;;4958141;28;20054;-68
2023/07/23 09:40:35;;;;;;;10.13;6.95;;;16.70;99.90;;;;;;4953821;28;20516;-68
2023/07/23 09:43:01;;;;;;;10.97;6.30;;;16.80;99.90;;;;;;4961971;28;20039;-66
2023/07/23 09:45:30;;;;;;;10.52;7.10;;;16.80;99.90;;;;;;4957066;28;20487;-67
2023/07/23 09:47:57;;;;;;;8.73;5.93;;;16.80;99.90;;;;;;4955594;28;20125;-66
2023/07/23 09:50:23;;;;;;;10.38;6.55;;;16.70;99.90;;;;;;4955657;28;20050;-67
2023/07/23 09:52:51;;;;;;;8.57;5.68;;;16.70;99.90;;;;;;4954895;28;20043;-67
2023/07/23 09:55:19;;;;;;;8.40;5.97;;;16.70;99.90;;;;;;4950309;28;21044;-68
2023/07/23 09:57:48;;;;;;;8.63;5.35;;;16.80;99.90;;;;;;4950939;28;20149;-68
2023/07/23 10:00:14;;;;;;;7.25;5.50;;;16.70;99.90;;;;;;4934235;28;20896;-68
2023/07/23 10:02:42;;;;;;;8.27;4.68;;;16.70;99.90;;;;;;4933145;28;20137;-67
2023/07/23 10:05:10;;;;;;;9.30;5.60;;;16.70;99.90;;;;;;4957231;28;20061;-68
2023/07/23 10:07:39;;;;;;;7.32;5.32;;;16.80;99.90;;;;;;4928634;29;20062;-68
2023/07/23 10:10:06;;;;;;;7.88;5.60;;;16.70;99.90;;;;;;4949311;28;20089;-68
2023/07/23 10:12:31;;;;;;;7.72;5.63;;;16.80;99.90;;;;;;4957016;28;20067;-68
2023/07/23 10:14:57;;;;;;;7.97;4.40;;;16.80;99.90;;;;;;4954672;28;20138;-68
2023/07/23 10:17:24;;;;;;;8.23;5.22;;;16.80;99.90;;;;;;4959251;28;20150;-66
2023/07/23 10:19:52;;;;;;;8.15;5.95;;;16.90;99.90;;;;;;4956075;28;20035;-68
2023/07/23 10:22:18;;;;;;;8.05;6.22;;;16.80;99.90;;;;;;4962888;28;20915;-68
2023/07/23 10:24:49;;;;;;;7.85;5.28;;;16.80;99.90;;;;;;4964569;28;20118;-68
2023/07/23 10:27:16;;;;;;;8.88;5.88;;;16.90;99.90;;;;;;4959973;28;20034;-68
2023/07/23 10:30:08;;;;;;;11.23;5.88;;;16.90;99.90;;;;;;4966888;28;20050;-68
2023/07/23 10:32:33;;;;;;;10.63;6.55;;;16.90;99.90;;;;;;4952378;28;20055;-68
2023/07/23 10:34:59;;;;;;;7.90;5.35;;;16.90;99.90;;;;;;4953365;28;20044;-68
2023/07/23 10:37:25;;;;;;;8.48;6.43;;;17.00;99.90;;;;;;4962932;28;20054;-68
2023/07/23 10:39:52;;;;;;;9.50;5.47;;;16.90;99.90;;;;;;4931605;28;20058;-67
2023/07/23 10:42:38;;;;;;;7.63;5.50;;;17.00;99.90;;;;;;4925151;29;20062;-71
2023/07/23 10:45:24;;;;;;;9.38;6.20;;;17.00;99.90;;;;;;4932570;28;20125;-67
2023/07/23 10:47:56;;;;;;;8.23;5.80;;;17.00;99.90;;;;;;4941052;28;20054;-68
2023/07/23 10:50:23;;;;;;;12.20;5.75;;;17.00;99.90;;;;;;4923877;29;20054;-69
2023/07/23 10:52:52;;;;;;;10.35;6.15;;;17.00;99.90;;;;;;4928350;28;20047;-70
2023/07/23 10:55:41;;;;;;;10.48;6.20;;;17.00;99.90;;;;;;4951975;28;20046;-68
2023/07/23 10:58:12;;;;;;;8.95;6.30;;;17.00;99.90;;;;;;4924338;28;20822;-68
2023/07/23 11:00:46;;;;;;;9.73;6.40;;;17.00;99.90;;;;;;4942666;28;20053;-68
2023/07/23 11:03:17;;;;;;;8.85;6.22;;;17.10;99.90;;;;;;4947285;28;20798;-68
2023/07/23 11:05:43;;;;;;;9.80;6.10;;;17.10;99.90;;;;;;4923759;29;20066;-68
2023/07/23 11:08:26;;;;;;;11.52;6.63;;;17.10;99.90;;;;;;4938870;28;20059;-68
2023/07/23 11:11:00;;;;;;;10.85;5.75;;;17.10;99.90;;;;;;4955170;28;20042;-68
2023/07/23 11:13:29;;;;;;;11.48;6.30;;;17.10;99.90;;;;;;4945864;28;20154;-67
2023/07/23 11:15:55;;;;;;;9.88;6.35;;;17.10;99.90;;;;;;4940986;28;20047;-68
2023/07/23 11:18:22;;;;;;;8.70;6.03;;;17.20;99.90;;;;;;4947954;28;20078;-68
2023/07/23 11:20:52;;;;;;;7.95;5.75;;;17.20;99.90;;;;;;4954833;28;21062;-72
2023/07/23 11:23:20;;;;;;;9.18;5.65;;;17.20;99.90;;;;;;4951376;28;20047;-67
2023/07/23 11:25:47;;;;;;;10.52;6.65;;;17.20;99.90;;;;;;4944440;28;20511;-71
2023/07/23 11:28:16;;;;;;;8.18;5.85;;;17.30;99.90;;;;;;4932328;28;20059;-73
2023/07/23 11:30:42;;;;;;;10.48;6.40;;;17.30;99.90;;;;;;4947844;28;20086;-68
2023/07/23 11:33:08;;;;;;;9.45;6.18;;;17.30;99.90;;;;;;4942933;28;20142;-73
2023/07/23 11:35:34;;;;;;;10.18;5.93;;;17.40;99.90;;;;;;4952570;28;20494;-71
2023/07/23 11:38:06;;;;;;;9.25;6.00;;;17.40;99.90;;;;;;4950405;28;20581;-67
2023/07/23 11:40:32;;;;;;;8.10;5.70;;;17.40;99.90;;;;;;4954798;28;20034;-68
2023/07/23 11:43:05;;;;;;;10.35;5.78;;;17.30;99.90;;;;;;4951122;28;20905;-69
2023/07/23 11:45:31;;;;;;;10.23;5.53;;;17.40;99.90;;;;;;4945565;28;20051;-69
2023/07/23 11:47:57;;;;;;;10.15;6.22;;;17.30;99.90;;;;;;4950122;28;20043;-69
2023/07/23 11:50:24;;;;;;;8.68;5.47;;;17.40;99.90;;;;;;4957486;28;20852;-68
2023/07/23 11:52:51;;;;;;;8.02;5.38;;;17.30;99.90;;;;;;4957012;28;20114;-69
2023/07/23 11:55:26;;;;;;;9.70;5.55;;;17.30;99.90;;;;;;4940229;28;20845;-68
2023/07/23 11:57:57;;;;;;;7.30;4.75;;;17.40;99.90;;;;;;4938156;28;20062;-69
2023/07/23 12:00:29;;;;;;;7.18;5.03;;;17.50;99.90;;;;;;4950991;28;20034;-68
2023/07/23 12:02:56;;;;;;;9.45;4.72;;;17.50;99.90;;;;;;4947951;28;20800;-68
2023/07/23 12:05:22;;;;;;;6.88;4.20;;;17.50;99.90;;;;;;4942562;28;20514;-69
2023/07/23 12:07:48;;;;;;;7.28;4.25;;;17.50;99.90;;;;;;4927796;28;20159;-68
2023/07/23 12:10:14;;;;;;;6.22;4.15;;;17.50;99.90;;;;;;4935654;29;20047;-69
2023/07/23 12:12:43;;;;;;;5.10;3.72;;;17.50;99.90;;;;;;4944676;28;20231;-68
2023/07/23 12:15:15;;;;;;;5.18;3.42;;;17.60;99.90;;;;;;4954000;28;20781;-68
2023/07/23 12:17:42;;;;;;;6.03;3.92;;;17.50;99.90;;;;;;4953974;28;20043;-68
2023/07/23 12:20:12;;;;;;;8.13;4.05;;;17.60;99.90;;;;;;4955943;28;20081;-68
2023/07/23 12:22:50;;;;;;;6.60;3.70;;;17.60;99.90;;;;;;4943359;28;20047;-69
2023/07/23 12:25:16;;;;;;;5.32;3.65;;;17.70;99.90;;;;;;4954063;28;20039;-68
2023/07/23 12:27:42;;;;;;;4.30;3.25;;;17.70;99.90;;;;;;4953812;28;20043;-67
2023/07/23 12:30:08;;;;;;;6.10;3.33;;;17.80;99.90;;;;;;4965258;28;20039;-69
2023/07/23 12:32:36;;;;;;;4.28;3.20;;;17.90;99.90;;;;;;4966034;28;20070;-69
2023/07/23 12:35:02;;;;;;;4.40;3.10;;;17.90;99.90;;;;;;4960686;28;20035;-67